Tiempo atmosférico en la estación meteorológica de Serradilla, Cáceres (410 m.)



Fecha
DESCASC
Temp. máxima en grados centígrados (hora)
DESCASC
Temp. mínima en grados centígrados (hora)
DESCASC
Temp. media en grados centígrados
DESCASC
Racha de viento máxima en m/sg (hora)
DESCASC
Velocidad máxima media en intervalos de 10 minutos(hora)
DESCASC
Precipitaciones diarias en mm
DESCASC
Precipitaciones de 00:00 a 06:00 en mm
DESCASC
Precipitaciones de 06:00 a 12:00 en mm
DESCASC
Precipitaciones de 12:00 a 18:00 en mm
DESCASC
Precipitaciones de 18:00 a 24:00 en mm
DESCASC
18-08-2019 33.6 (17:00) 17.6 (07:50) 25.6 9.72 (19:40) 5.28 (01:10) 0 0 0 0 0
17-08-2019 37.8 (17:50) 19.9 (07:20) 28.8 9.44 (03:10) 5.83 (00:30) 0 0 0 0 0
16-08-2019 37.4 (16:10) 23.7 (07:30) 30.6 12.22 (01:20) 7.22 (01:10) 0 0 0 0 0
15-08-2019 37 (17:10) 24.2 (00:00) 30.6 11.67 (06:00) 6.94 (05:20) 0 0 0 0 0
14-08-2019 35.3 (16:30) 19.9 (00:00) 27.6 8.89 (08:10) 5.83 (08:20) 0 0 0 0 0
13-08-2019 32.3 (16:50) 18.7 (00:00) 25.5 12.22 (09:40) 6.94 (11:30) 0 0 0 0 0
12-08-2019 30 (17:10) 16 (00:00) 23 16.39 (04:20) 9.44 (08:20) 0 0 0 0 0
11-08-2019 27.7 (18:00) 16 (00:00) 21.9 10.83 (16:40) 7.5 (23:40) 0 0 0 0 0
10-08-2019 31.5 (16:50) 15.3 (00:00) 23.4 7.22 (23:10) 3.89 (10:20) 0 0 0 0 0
09-08-2019 25.8 (00:00) 18.5 (00:00) 22.1 10.28 (17:10) 5.56 (17:10) 0.6 0 0 0.6 0
08-08-2019 33.5 (17:20) 18.6 (00:00) 26.1 10.83 (19:30) 6.39 (17:30) 0 0 0 0 0
07-08-2019 27.4 (18:50) 20 (00:00) 23.7 6.94 (00:10) 3.89 (01:10) 0.8 0 0 0.8 0
06-08-2019 35 (16:50) 18.1 (00:00) 26.6 9.44 (20:20) 5 (16:30) 0 0 0 0 0
05-08-2019 36.2 (18:10) 16.6 (00:00) 26.4 7.78 (15:40) 4.17 (23:59) 0 0 0 0 0
04-08-2019 36.1 (17:00) 19.5 (00:00) 27.8 8.33 (17:20) 4.44 (17:50) 0 0 0 0 0
03-08-2019 36.1 (17:10) 18.4 (00:00) 27.2 7.5 (16:50) 3.89 (19:10) 0 0 0 0 0
02-08-2019 36.1 (18:00) 16.6 (00:00) 26.3 8.06 (00:10) 4.72 (00:10) 0 0 0 0 0
01-08-2019 34.9 (18:30) 18.5 (00:00) 26.7 9.72 (16:20) 5.28 (16:00) 0 0 0 0 0
31-07-2019 36 (17:30) 19.7 (00:00) 27.9 13.33 (11:10) 7.78 (10:10) 0 0 0 0 0
30-07-2019 30.9 (18:10) 16 (00:00) 23.4 17.78 (04:30) 11.11 (04:20) 0 0 0 0 0
29-07-2019 31.3 (16:10) 15.3 (00:00) 23.3 11.94 (22:40) 7.22 (22:30) 0 0 0 0 0
28-07-2019 32.3 (16:20) 16.4 (00:00) 24.3 9.44 (02:30) 6.11 (03:10) 0 0 0 0 0
27-07-2019 28.1 (18:40) 15.8 (00:00) 22 9.72 (01:10) 5.28 (11:20) 0.2 0 0.2 0 0
26-07-2019 30.2 (18:10) 16.7 (00:00) 23.5 10 (15:40) 5 (14:30) 0 0 0 0 0
25-07-2019 35.3 (17:40) 21.8 (00:00) 28.5 10.56 (17:00) 6.11 (00:20) 0 0 0 0 0
24-07-2019 38.6 (17:10) 22.5 (00:00) 30.5 10.28 (02:00) 6.11 (01:50) 0 0 0 0 0
23-07-2019 37.6 (17:30) 23 (00:00) 30.3 10.83 (05:20) 6.94 (04:10) 0.2 0.2 0 0 0
22-07-2019 40.1 (17:50) 24.9 (00:00) 32.5 15 (22:20) 8.06 (08:20) 0 0 0 0 0
21-07-2019 39.4 (18:20) 21 (00:00) 30.2 10.83 (03:20) 6.67 (01:00) 0 0 0 0 0

Gráficas

Temp. máximas Temp. mínimas Temp. medias Precipitaciones Rachas de viento máximas Velocidades máximas media en intervalos de 10 minutos

Datos horarios

Fecha y hora oficial Temperatura (ºC) Velocidad del viento (km/h) Dirección del viento Racha (km/h) Dirección de racha Precipitación (mm) Presión (hPa) Tendencia (hPa) Humedad (%)
2019-08-19 23:00:00 25.8 9 Oeste 30 Oeste 0 -- -- 35
2019-08-19 22:00:00 27.3 8 Noroeste 15 Noroeste 0 -- -- 27
2019-08-19 21:00:00 28.1 9 Noroeste 16 Noroeste 0 -- -- 26
2019-08-19 20:00:00 28.5 11 Noroeste 19 Noroeste 0 -- -- 29
2019-08-19 19:00:00 29 13 Noroeste 28 Noroeste 0 -- -- 29
2019-08-19 18:00:00 30.3 7 Noroeste 25 Sudoeste 0 -- -- 30
2019-08-19 17:00:00 31.7 9 Oeste 30 Sudoeste 0 -- -- 26
2019-08-19 16:00:00 31.2 11 Oeste 23 Sudoeste 0 -- -- 30
2019-08-19 15:00:00 30.8 9 Sudoeste 26 Sudoeste 0 -- -- 31
2019-08-19 14:00:00 29.6 8 Sur 20 Sudoeste 0 -- -- 34
2019-08-19 13:00:00 27.9 8 Sudoeste 19 Sudoeste 0 -- -- 41
2019-08-19 12:00:00 25.7 8 Sudoeste 17 Sudoeste 0 -- -- 48
2019-08-19 11:00:00 22.2 6 Oeste 12 Sudoeste 0 -- -- 58
2019-08-19 10:00:00 19.2 4 Sudoeste 9 Oeste 0 -- -- 70
2019-08-19 09:00:00 16.9 3 Sudoeste 6 Sur 0 -- -- 78
2019-08-19 08:00:00 15.9 0 Calma 7 Sur 0 -- -- 83
2019-08-19 07:00:00 16.4 3 Sur 7 Sur 0 -- -- 79
2019-08-19 06:00:00 17.5 7 Sudoeste 18 Sudoeste 0 -- -- 77
2019-08-19 05:00:00 18.5 8 Sudoeste 18 Sudoeste 0 -- -- 75
2019-08-19 04:00:00 19.5 10 Sudoeste 17 Sudoeste 0 -- -- 74
2019-08-19 03:00:00 21.7 9 Oeste 23 Sudoeste 0 -- -- 66
2019-08-19 02:00:00 23.1 12 Sudoeste 30 Sudoeste 0 -- -- 61
2019-08-19 01:00:00 23.7 19 Sudoeste 31 Sudoeste 0 -- -- 60
2019-08-19 00:00:00 24.6 15 Oeste 28 Oeste 0 -- -- 59
2019-08-18 23:00:00 26.1 13 Oeste 25 Noroeste 0 -- -- 54
2019-08-18 22:00:00 27.8 13 Oeste 32 Oeste 0 -- -- 46
2019-08-18 21:00:00 30.3 16 Oeste 32 Sudoeste 0 -- -- 40
2019-08-18 20:00:00 31.7 14 Sudoeste 35 Oeste 0 -- -- 34
2019-08-18 19:00:00 32.5 10 Oeste 32 Sudoeste 0 -- -- 30
2019-08-18 18:00:00 33.4 13 Oeste 34 Sudoeste 0 -- -- 26
2019-08-18 17:00:00 33.6 17 Sudoeste 33 Sudoeste 0 -- -- 25
2019-08-18 16:00:00 33.1 15 Sudoeste 35 Sudoeste 0 -- -- 25
2019-08-18 15:00:00 31.7 17 Sudoeste 32 Sudoeste 0 -- -- 27
2019-08-18 14:00:00 30.5 13 Sudoeste 23 Sudoeste 0 -- -- 33
2019-08-18 13:00:00 30.4 11 Sudoeste 23 Sudoeste 0 -- -- 36
2019-08-18 12:00:00 28 12 Sudoeste 21 Sur 0 -- -- 40
2019-08-18 11:00:00 24.9 8 Sudoeste 14 Sudoeste 0 -- -- 49
2019-08-18 10:00:00 21.4 8 Sudoeste 13 Sur 0 -- -- 61
2019-08-18 09:00:00 18.9 3 Sudoeste 6 Sur 0 -- -- 70
2019-08-18 08:00:00 17.7 3 Oeste 13 Sudoeste 0 -- -- 75
2019-08-18 07:00:00 18.1 5 Oeste 8 Oeste 0 -- -- 73
2019-08-18 06:00:00 19.1 6 Sudoeste 12 Oeste 0 -- -- 69
2019-08-18 05:00:00 20.4 6 Oeste 15 Sudoeste 0 -- -- 64
2019-08-18 04:00:00 21.6 5 Oeste 14 Sudoeste 0 -- -- 60
2019-08-18 03:00:00 23.4 8 Oeste 17 Sudoeste 0 -- -- 53
2019-08-18 02:00:00 25.3 9 Sudoeste 31 Sudoeste 0 -- -- 45
2019-08-18 01:00:00 28 17 Sudoeste 29 Oeste 0 -- -- 38
2019-08-18 00:00:00 29.2 15 Oeste 26 Oeste 0 -- -- 38
2019-08-17 23:00:00 29.7 8 Sudoeste 14 Sudoeste 0 -- -- 18
2019-08-17 22:00:00 31.5 5 Oeste 14 Sudoeste 0 -- -- 17
2019-08-17 21:00:00 34.3 8 Sudoeste 22 Sudoeste 0 -- -- 14
2019-08-17 20:00:00 35.8 12 Sudoeste 26 Sudoeste 0 -- -- 13
2019-08-17 19:00:00 36.9 14 Sudoeste 30 Sur 0 -- -- 14
2019-08-17 18:00:00 37.7 12 Sur 27 Sudoeste 0 -- -- 14
2019-08-17 17:00:00 37.4 13 Oeste 31 Sudoeste 0 -- -- 14
2019-08-17 16:00:00 37.1 14 Sudoeste 24 Sudoeste 0 -- -- 14
2019-08-17 15:00:00 36.1 8 Sudoeste 22 Sudoeste 0 -- -- 18
2019-08-17 14:00:00 34.7 11 Sur 21 Sudoeste 0 -- -- 22
2019-08-17 13:00:00 33.2 8 Sur 18 Sudoeste 0 -- -- 26
2019-08-17 12:00:00 30.5 4 Sudoeste 10 Sudoeste 0 -- -- 31
2019-08-17 11:00:00 27.4 3 Oeste 8 Sudeste 0 -- -- 37
2019-08-17 10:00:00 23.9 3 Este 9 Este 0 -- -- 43
2019-08-17 09:00:00 21.3 6 Este 10 Este 0 -- -- 49
2019-08-17 08:00:00 20.1 6 Este 12 Este 0 -- -- 51
2019-08-17 07:00:00 20.2 6 Nordeste 8 Nordeste 0 -- -- 50
2019-08-17 06:00:00 21.2 6 Nordeste 8 Nordeste 0 -- -- 48
2019-08-17 05:00:00 25.6 2 Norte 12 Norte 0 -- -- 38
2019-08-17 04:00:00 26.7 16 Noroeste 34 Noroeste 0 -- -- 36
2019-08-17 03:00:00 27.5 19 Noroeste 32 Noroeste 0 -- -- 35
2019-08-17 02:00:00 28.7 13 Noroeste 30 Oeste 0 -- -- 34
2019-08-17 01:00:00 29.2 18 Noroeste 32 Noroeste 0 -- -- 36
2019-08-17 00:00:00 30 19 Noroeste 33 Noroeste 0 -- -- 36
2019-08-16 23:00:00 29.9 12 Sudoeste 19 Sudoeste 0 -- -- 32
2019-08-16 22:00:00 31.9 5 Oeste 11 Sudoeste 0 -- -- 23
2019-08-16 21:00:00 34.7 5 Sudoeste 18 Oeste 0 -- -- 21
2019-08-16 20:00:00 35.5 9 Noroeste 26 Oeste 0 -- -- 21
2019-08-16 19:00:00 36.7 8 Sudoeste 24 Oeste 0 -- -- 21
2019-08-16 18:00:00 36.9 12 Noroeste 24 Noroeste 0 -- -- 21
2019-08-16 17:00:00 37.2 15 Sudoeste 28 Sudoeste 0 -- -- 23
2019-08-16 16:00:00 37.2 9 Oeste 30 Sudoeste 0 -- -- 22
2019-08-16 15:00:00 36.3 14 Sur 32 Sur 0 -- -- 24
2019-08-16 14:00:00 34.8 6 Sudoeste 21 Sudoeste 0 -- -- 25
2019-08-16 13:00:00 32.9 5 Nordeste 21 Nordeste 0 -- -- 30
2019-08-16 12:00:00 31 10 Este 25 Este 0 -- -- 34
2019-08-16 11:00:00 29.1 12 Este 26 Este 0 -- -- 37
2019-08-16 10:00:00 27.2 11 Nordeste 23 Nordeste 0 -- -- 40
2019-08-16 09:00:00 25.1 13 Nordeste 21 Nordeste 0 -- -- 43
2019-08-16 08:00:00 24.2 10 Nordeste 16 Nordeste 0 -- -- 44
2019-08-16 07:00:00 24.1 10 Nordeste 22 Nordeste 0 -- -- 44
2019-08-16 06:00:00 25.4 10 Norte 24 Noroeste 0 -- -- 44
2019-08-16 05:00:00 26.2 12 Norte 35 Noroeste 0 -- -- 44
2019-08-16 04:00:00 27 20 Noroeste 35 Norte 0 -- -- 41
2019-08-16 03:00:00 27.9 20 Noroeste 40 Noroeste 0 -- -- 38
2019-08-16 02:00:00 28.8 24 Noroeste 44 Norte 0 -- -- 36
2019-08-16 01:00:00 30 23 Norte 42 Noroeste 0 -- -- 31
2019-08-16 00:00:00 31 21 Noroeste 32 Norte 0 -- -- 28
2019-08-15 23:00:00 32 19 Norte 32 Noroeste 0 -- -- 26
2019-08-15 22:00:00 32.5 13 Noroeste 19 Noroeste 0 -- -- 22
2019-08-15 21:00:00 34.2 9 Noroeste 19 Noroeste 0 -- -- 21
2019-08-15 20:00:00 35.4 10 Oeste 23 Noroeste 0 -- -- 20
2019-08-15 19:00:00 36.4 11 Oeste 23 Noroeste 0 -- -- 21
2019-08-15 18:00:00 37 11 Noroeste 28 Sudoeste 0 -- -- 20
2019-08-15 17:00:00 36.9 11 Oeste 37 Norte 0 -- -- 21
2019-08-15 16:00:00 36.7 14 Noroeste 26 Oeste 0 -- -- 21
2019-08-15 15:00:00 36.2 8 Sur 20 Sudoeste 0 -- -- 26
2019-08-15 14:00:00 35.1 5 Oeste 17 Sudoeste 0 -- -- 29
2019-08-15 13:00:00 33.9 7 Oeste 16 Sudoeste 0 -- -- 31
2019-08-15 12:00:00 32 6 Noroeste 17 Norte 0 -- -- 35
2019-08-15 11:00:00 30 7 Norte 18 Norte 0 -- -- 38
2019-08-15 10:00:00 27.2 10 Noroeste 24 Norte 0 -- -- 47
2019-08-15 09:00:00 25.1 5 Sur 26 Noroeste 0 -- -- 52
2019-08-15 08:00:00 24.2 13 Noroeste 33 Noroeste 0 -- -- 55
2019-08-15 07:00:00 24.7 20 Norte 38 Norte 0 -- -- 53
2019-08-15 06:00:00 25.2 24 Noroeste 42 Noroeste 0 -- -- 51
2019-08-15 05:00:00 26 23 Noroeste 36 Noroeste 0 -- -- 49
2019-08-15 04:00:00 26.6 19 Noroeste 34 Noroeste 0 -- -- 47
2019-08-15 03:00:00 27 21 Noroeste 34 Norte 0 -- -- 44
2019-08-15 02:00:00 27.7 22 Norte 35 Noroeste 0 -- -- 41
2019-08-15 01:00:00 28.7 20 Noroeste 32 Noroeste 0 -- -- 36
2019-08-15 00:00:00 29.8 13 Noroeste 19 Noroeste 0 -- -- 31
2019-08-14 23:00:00 30 10 Noroeste 14 Noroeste 0 -- -- 24
2019-08-14 22:00:00 30 5 Oeste 10 Oeste 0 -- -- 22
2019-08-14 21:00:00 32.6 6 Oeste 18 Noroeste 0 -- -- 22
2019-08-14 20:00:00 33.5 10 Oeste 21 Noroeste 0 -- -- 20
2019-08-14 19:00:00 34.2 12 Noroeste 28 Noroeste 0 -- -- 19
2019-08-14 18:00:00 34.8 12 Noroeste 26 Oeste 0 -- -- 18
2019-08-14 17:00:00 34.8 10 Oeste 26 Oeste 0 -- -- 17
2019-08-14 16:00:00 34.8 4 Nordeste 16 Nordeste 0 -- -- 16
2019-08-14 15:00:00 33.7 8 Este 19 Este 0 -- -- 17
2019-08-14 14:00:00 32.6 9 Este 24 Este 0 -- -- 17
2019-08-14 13:00:00 30.8 12 Este 26 Este 0 -- -- 19
2019-08-14 12:00:00 29.1 10 Nordeste 27 Este 0 -- -- 21
2019-08-14 11:00:00 26.9 15 Nordeste 28 Nordeste 0 -- -- 23
2019-08-14 10:00:00 24.6 16 Nordeste 24 Este 0 -- -- 26
2019-08-14 09:00:00 22.1 16 Nordeste 32 Nordeste 0 -- -- 29
2019-08-14 08:00:00 20.8 19 Nordeste 27 Nordeste 0 -- -- 31
2019-08-14 07:00:00 20.3 13 Nordeste 22 Nordeste 0 -- -- 32
2019-08-14 06:00:00 21.8 7 Este 20 Nordeste 0 -- -- 29
2019-08-14 05:00:00 23.6 15 Norte 22 Norte 0 -- -- 26
2019-08-14 04:00:00 23.1 7 Norte 22 Noroeste 0 -- -- 27
2019-08-14 03:00:00 23.8 12 Norte 27 Noroeste 0 -- -- 27
2019-08-14 02:00:00 24.7 15 Norte 28 Norte 0 -- -- 25
2019-08-14 01:00:00 25.5 18 Norte 31 Norte 0 -- -- 24
2019-08-14 00:00:00 26.4 17 Norte 31 Norte 0 -- -- 24
2019-08-13 23:00:00 27.3 15 Noroeste 25 Noroeste 0 -- -- 23
2019-08-13 22:00:00 27.1 8 Noroeste 12 Noroeste 0 -- -- 23
2019-08-13 21:00:00 29.4 7 Noroeste 15 Noroeste 0 -- -- 21
2019-08-13 20:00:00 30.2 6 Norte 19 Oeste 0 -- -- 18
2019-08-13 19:00:00 31.3 8 Noroeste 23 Noroeste 0 -- -- 17
2019-08-13 18:00:00 32.2 11 Oeste 21 Oeste 0 -- -- 11
2019-08-13 17:00:00 32 4 Noroeste 16 Noroeste 0 -- -- 17
2019-08-13 16:00:00 31.4 5 Oeste 19 Este 0 -- -- 18
2019-08-13 15:00:00 30.5 7 Norte 19 Nordeste 0 -- -- 21
2019-08-13 14:00:00 29.2 13 Nordeste 31 Nordeste 0 -- -- 24
2019-08-13 13:00:00 27.9 15 Nordeste 29 Este 0 -- -- 27
2019-08-13 12:00:00 25.8 15 Nordeste 38 Nordeste 0 -- -- 31
2019-08-13 11:00:00 24 22 Este 36 Este 0 -- -- 34
2019-08-13 10:00:00 21.7 23 Nordeste 44 Este 0 -- -- 38
2019-08-13 09:00:00 19.8 14 Nordeste 39 Nordeste 0 -- -- 42
2019-08-13 08:00:00 19.3 17 Nordeste 31 Nordeste 0 -- -- 43
2019-08-13 07:00:00 18.9 14 Este 30 Este 0 -- -- 42
2019-08-13 06:00:00 19.5 14 Este 42 Este 0 -- -- 38
2019-08-13 05:00:00 20 10 Norte 18 Norte 0 -- -- 32
2019-08-13 04:00:00 20.8 9 Nordeste 12 Nordeste 0 -- -- 29
2019-08-13 03:00:00 20.7 5 Norte 22 Noroeste 0 -- -- 30
2019-08-13 02:00:00 22.1 12 Norte 27 Norte 0 -- -- 28
2019-08-13 01:00:00 22.6 17 Norte 33 Norte 0 -- -- 27
2019-08-13 00:00:00 23.3 17 Noroeste 28 Noroeste 0 -- -- 27
2019-08-12 23:00:00 23.8 17 Noroeste 29 Norte 0 -- -- 26
2019-08-12 22:00:00 24 17 Norte 33 Norte 0 -- -- 25
2019-08-12 21:00:00 25.2 19 Norte 36 Noroeste 0 -- -- 23
2019-08-12 20:00:00 27.2 18 Noroeste 32 Noroeste 0 -- -- 21
2019-08-12 19:00:00 28.1 19 Noroeste 35 Noroeste 0 -- -- 22
2019-08-12 18:00:00 28.8 17 Noroeste 32 Noroeste 0 -- -- 22
2019-08-12 17:00:00 29.8 8 Sur 27 Este 0 -- -- 19
2019-08-12 16:00:00 28.7 10 Este 26 Este 0 -- -- 21
2019-08-12 15:00:00 28 7 Sudeste 22 Noroeste 0 -- -- 23
2019-08-12 14:00:00 26.5 5 Norte 24 Nordeste 0 -- -- 26
2019-08-12 13:00:00 25.3 8 Este 23 Nordeste 0 -- -- 28
2019-08-12 12:00:00 24.2 5 Norte 21 Nordeste 0 -- -- 31
2019-08-12 11:00:00 21.8 11 Norte 29 Noroeste 0 -- -- 38
2019-08-12 10:00:00 19.3 17 Norte 49 Norte 0 -- -- 43
2019-08-12 09:00:00 16.8 28 Norte 58 Norte 0 -- -- 50
2019-08-12 08:00:00 16.1 33 Norte 54 Norte 0 -- -- 52
2019-08-12 07:00:00 16.2 32 Norte 49 Norte 0 -- -- 52
2019-08-12 06:00:00 16.5 30 Norte 51 Norte 0 -- -- 52
2019-08-12 05:00:00 17 30 Norte 59 Norte 0 -- -- 51
2019-08-12 04:00:00 17.6 32 Norte 52 Noroeste 0 -- -- 49
2019-08-12 03:00:00 18.3 30 Norte 58 Norte 0 -- -- 48
2019-08-12 02:00:00 18.7 30 Noroeste 45 Noroeste 0 -- -- 49
2019-08-12 01:00:00 19.1 22 Noroeste 44 Noroeste 0 -- -- 48
2019-08-12 00:00:00 20.2 26 Noroeste 39 Noroeste 0 -- -- 41
2019-08-11 23:00:00 21.6 22 Noroeste 33 Noroeste 0 -- -- 34
2019-08-11 22:00:00 22.6 18 Noroeste 36 Noroeste 0 -- -- 31
2019-08-11 21:00:00 24.1 19 Noroeste 32 Oeste 0 -- -- 28
2019-08-11 20:00:00 25.7 15 Oeste 32 Oeste 0 -- -- 26
2019-08-11 19:00:00 26.4 17 Noroeste 35 Oeste 0 -- -- 26
2019-08-11 18:00:00 27.7 13 Noroeste 36 Oeste 0 -- -- 25
2019-08-11 17:00:00 26.8 15 Noroeste 39 Oeste 0 -- -- 25
2019-08-11 16:00:00 26.8 13 Oeste 30 Oeste 0 -- -- 25
2019-08-11 15:00:00 25.1 18 Noroeste 34 Oeste 0 -- -- 32
2019-08-11 14:00:00 25.4 16 Oeste 30 Oeste 0 -- -- 37
2019-08-11 13:00:00 24.7 8 Oeste 23 Noroeste 0 -- -- 44
2019-08-11 12:00:00 22.5 12 Noroeste 24 Noroeste 0 -- -- 50
2019-08-11 11:00:00 22 9 Noroeste 17 Noroeste 0 -- -- 53
2019-08-11 10:00:00 19.3 8 Sudoeste 15 Sudoeste 0 -- -- 62
2019-08-11 09:00:00 16.9 7 Sudoeste 19 Sudoeste 0 -- -- 69
2019-08-11 08:00:00 16.5 14 Sudoeste 23 Sudoeste 0 -- -- 70
2019-08-11 07:00:00 17.1 11 Sudoeste 25 Sudoeste 0 -- -- 66
2019-08-11 06:00:00 19 11 Oeste 32 Sudoeste 0 -- -- 59
2019-08-11 05:00:00 20.7 8 Sudeste 37 Norte 0 -- -- 53
2019-08-11 04:00:00 20.8 19 Noroeste 35 Noroeste 0 -- -- 55
2019-08-11 03:00:00 21.4 11 Sudoeste 33 Oeste 0 -- -- 55
2019-08-11 02:00:00 22.3 12 Oeste 23 Oeste 0 -- -- 51
2019-08-11 01:00:00 23.1 10 Oeste 22 Sudoeste 0 -- -- 48
2019-08-11 00:00:00 24.4 8 Oeste 26 Oeste 0 -- -- 42
2019-08-10 23:00:00 26.1 10 Oeste 22 Oeste 0 -- -- 36
2019-08-10 22:00:00 26.6 4 Oeste 13 Sudoeste 0 -- -- 32
2019-08-10 21:00:00 27.8 6 Oeste 14 Oeste 0 -- -- 28
2019-08-10 20:00:00 28.6 4 Noroeste 23 Sudoeste 0 -- -- 29
2019-08-10 19:00:00 29 6 Oeste 18 Noroeste 0 -- -- 26
2019-08-10 18:00:00 30.2 10 Sudoeste 24 Sur 0 -- -- 23
2019-08-10 17:00:00 30.7 9 Noroeste 22 Sudoeste 0 -- -- 25
2019-08-10 16:00:00 29.9 7 Oeste 20 Oeste 0 -- -- 21
2019-08-10 15:00:00 28.1 8 Noroeste 21 Noroeste 0 -- -- 32
2019-08-10 14:00:00 27.2 6 Sudoeste 14 Noroeste 0 -- -- 36
2019-08-10 13:00:00 24.6 7 Noroeste 16 Oeste 0 -- -- 43
2019-08-10 12:00:00 21.7 10 Noroeste 20 Noroeste 0 -- -- 58
2019-08-10 11:00:00 22.8 12 Noroeste 22 Noroeste 0 -- -- 53
2019-08-10 10:00:00 20.6 10 Norte 24 Norte 0 -- -- 60
2019-08-10 09:00:00 16.9 3 Sudeste 10 Sur 0 -- -- 84
2019-08-10 08:00:00 16.4 4 Noroeste 10 Sudoeste 0 -- -- 80
2019-08-10 07:00:00 17 4 Sudoeste 13 Sudoeste 0 -- -- 82
2019-08-10 06:00:00 17.7 6 Sudoeste 12 Sudoeste 0 -- -- 74
2019-08-10 05:00:00 17.7 3 Oeste 13 Oeste 0 -- -- 74
2019-08-10 04:00:00 18.1 4 Sudoeste 10 Sudoeste 0 -- -- 77
2019-08-10 03:00:00 18.6 2 Noroeste 12 Sudoeste 0 -- -- 78
2019-08-10 02:00:00 18.9 6 Oeste 23 Sudoeste 0 -- -- 77
2019-08-10 01:00:00 18.5 5 Oeste 17 Oeste 0 -- -- 79
2019-08-10 00:00:00 18.8 8 Noroeste 14 Noroeste 0 -- -- 78
2019-08-09 23:00:00 18.9 12 Noroeste 23 Noroeste 0 -- -- 76
2019-08-09 22:00:00 18.8 4 Noroeste 14 Noroeste 0 -- -- 76
2019-08-09 21:00:00 20.5 9 Noroeste 15 Oeste 0 -- -- 67
2019-08-09 20:00:00 21.5 8 Noroeste 18 Oeste 0 -- -- 66
2019-08-09 19:00:00 21.5 8 Oeste 17 Oeste 0 -- -- 72
2019-08-09 18:00:00 20.5 8 Oeste 37 Noroeste 0 -- -- 75
2019-08-09 17:00:00 22.3 14 Oeste 35 Oeste 0 -- -- 68
2019-08-09 16:00:00 21 13 Oeste 31 Oeste 0 -- -- 86
2019-08-09 15:00:00 24.2 10 Oeste 24 Sudoeste 0 -- -- 78
2019-08-09 14:00:00 23.3 12 Sudoeste 20 Sudoeste 0.6 -- -- 87
2019-08-09 13:00:00 24.2 15 Sudoeste 28 Sur 0 -- -- 77
2019-08-09 12:00:00 22.1 18 Sur 31 Sudoeste 0 -- -- 87
2019-08-09 11:00:00 22.6 13 Sur 28 Sudoeste 0 -- -- 80
2019-08-09 10:00:00 22.3 14 Sur 25 Sur 0 -- -- 81
2019-08-09 09:00:00 21.7 5 Sur 19 Sur 0 -- -- 82
2019-08-09 08:00:00 21.2 6 Sur 17 Sur 0 -- -- 82
2019-08-09 07:00:00 21 7 Sur 14 Sur 0 -- -- 83
2019-08-09 06:00:00 20.9 7 Sur 17 Sudoeste 0 -- -- 83
2019-08-09 05:00:00 20.8 8 Oeste 19 Sudoeste 0 -- -- 83
2019-08-09 04:00:00 21.1 13 Sudoeste 26 Sudoeste 0 -- -- 81
2019-08-09 03:00:00 22.1 13 Sudoeste 20 Sudoeste 0 -- -- 78
2019-08-09 02:00:00 23.2 8 Oeste 19 Sudoeste 0 -- -- 69
2019-08-09 01:00:00 24.3 10 Sudoeste 19 Oeste 0 -- -- 61
2019-08-09 00:00:00 25.8 12 Oeste 23 Oeste 0 -- -- 56
2019-08-08 23:00:00 27.2 11 Oeste 30 Sudoeste 0 -- -- 51
2019-08-08 22:00:00 28.7 10 Oeste 26 Sudoeste 0 -- -- 46
2019-08-08 21:00:00 30.4 18 Sudoeste 38 Sudoeste 0 -- -- 40
2019-08-08 20:00:00 31.7 21 Sudoeste 39 Sudoeste 0 -- -- 38
2019-08-08 19:00:00 32.7 21 Sudoeste 36 Sudoeste 0 -- -- 36
2019-08-08 18:00:00 32.6 19 Sudoeste 36 Sudoeste 0 -- -- 37
2019-08-08 17:00:00 33.3 18 Sudoeste 34 Sudoeste 0 -- -- 35
2019-08-08 16:00:00 33.4 17 Sudoeste 34 Sudoeste 0 -- -- 34
2019-08-08 15:00:00 31.9 16 Sur 31 Sudoeste 0 -- -- 35
2019-08-08 14:00:00 31 12 Sur 30 Sur 0 -- -- 39
2019-08-08 13:00:00 29.5 8 Sur 30 Sudoeste 0 -- -- 45
2019-08-08 12:00:00 27.4 10 Sur 19 Sur 0 -- -- 52
2019-08-08 11:00:00 25.7 4 Sur 10 Sur 0 -- -- 57
2019-08-08 10:00:00 23 5 Sudoeste 9 Sudoeste 0 -- -- 60
2019-08-08 09:00:00 20.4 0 Calma 5 Este 0 -- -- 68
2019-08-08 08:00:00 18.8 2 Norte 6 Este 0 -- -- 73
2019-08-08 07:00:00 18.9 0 Calma 4 Norte 0 -- -- 72
2019-08-08 06:00:00 19.4 0 Calma 4 Nordeste 0 -- -- 70
2019-08-08 05:00:00 20 3 Nordeste 6 Nordeste 0 -- -- 69
2019-08-08 04:00:00 20 3 Nordeste 6 Nordeste 0 -- -- 69
2019-08-08 03:00:00 20.4 3 Nordeste 4 Nordeste 0 -- -- 68
2019-08-08 02:00:00 21.2 3 Sudeste 4 Este 0 -- -- 67
2019-08-08 01:00:00 22.1 4 Sudoeste 8 Sur 0 -- -- 62
2019-08-08 00:00:00 22.9 6 Sur 8 Sur 0 -- -- 60
2019-08-07 23:00:00 23.6 0 Calma 6 Noroeste 0 -- -- 58
2019-08-07 22:00:00 24.8 3 Noroeste 15 Oeste 0 -- -- 54
2019-08-07 21:00:00 26.8 11 Sudoeste 21 Sudoeste 0 -- -- 49
2019-08-07 20:00:00 26.8 8 Sudoeste 18 Sur 0 -- -- 47
2019-08-07 19:00:00 27.2 7 Oeste 15 Sudoeste 0 -- -- 47
2019-08-07 18:00:00 25.7 8 Sudoeste 20 Oeste 0 -- -- 48
2019-08-07 17:00:00 26.3 10 Sudoeste 21 Sudoeste 0 -- -- 46
2019-08-07 16:00:00 25.4 12 Sudoeste 18 Sur 0 -- -- 51
2019-08-07 15:00:00 24.5 10 Noroeste 17 Noroeste 0 -- -- 54
2019-08-07 14:00:00 20.6 5 Oeste 21 Sudoeste 0.2 -- -- 81
2019-08-07 13:00:00 20.1 9 Sudoeste 17 Sudoeste 0.6 -- -- 86
2019-08-07 12:00:00 20.9 7 Oeste 20 Sudoeste 0 -- -- 78
2019-08-07 11:00:00 21 6 Oeste 21 Sudoeste 0 -- -- 73
2019-08-07 10:00:00 20.8 8 Sudoeste 21 Sudoeste 0 -- -- 73
2019-08-07 09:00:00 20.3 9 Sudoeste 17 Sudoeste 0 -- -- 75
2019-08-07 08:00:00 20 10 Oeste 18 Sudoeste 0 -- -- 75
2019-08-07 07:00:00 20.2 10 Oeste 21 Sudoeste 0 -- -- 73
2019-08-07 06:00:00 20.7 13 Sudoeste 21 Sudoeste 0 -- -- 71
2019-08-07 05:00:00 21.2 10 Oeste 24 Oeste 0 -- -- 69
2019-08-07 04:00:00 21.8 13 Sudoeste 19 Oeste 0 -- -- 66
2019-08-07 03:00:00 22.7 11 Sudoeste 17 Sudoeste -- -- -- 62
2019-08-07 02:00:00 23.6 12 Sudoeste 21 Sudoeste 0 -- -- 59
2019-08-07 01:00:00 24.6 13 Sudoeste 25 Oeste 0 -- -- 53
2019-08-07 00:00:00 25.7 13 Sudoeste 24 Sudoeste 0 -- -- 46
2019-08-06 23:00:00 26.9 13 Sudoeste 25 Sudoeste 0 -- -- 42
2019-08-06 22:00:00 28.7 14 Oeste 28 Sudoeste 0 -- -- 36
2019-08-06 21:00:00 30.4 18 Oeste 34 Sudoeste 0 -- -- 33
2019-08-06 20:00:00 33.1 14 Sudoeste 28 Sudoeste 0 -- -- 27
2019-08-06 19:00:00 34.3 11 Oeste 29 Sudoeste 0 -- -- 25
2019-08-06 18:00:00 34.2 13 Sudoeste 29 Sudoeste 0 -- -- 26
2019-08-06 17:00:00 34.6 13 Sudoeste 28 Sudoeste 0 -- -- 24
2019-08-06 16:00:00 33.8 17 Sudoeste 33 Oeste 0 -- -- 25
2019-08-06 15:00:00 33.2 14 Sudoeste 33 Sudoeste 0 -- -- 27
2019-08-06 14:00:00 31.9 16 Sudoeste 28 Sudoeste 0 -- -- 29
2019-08-06 13:00:00 30.5 9 Sudoeste 22 Sur 0 -- -- 33
2019-08-06 12:00:00 28.3 8 Sur 18 Sudoeste 0 -- -- 40
2019-08-06 11:00:00 25.5 7 Sudoeste 14 Sudoeste 0 -- -- 48
2019-08-06 10:00:00 22.4 4 Sur 9 Sur 0 -- -- 58
2019-08-06 09:00:00 19.6 2 Sur 5 Sur 0 -- -- 65
2019-08-06 08:00:00 18.5 4 Sudoeste 9 Oeste 0 -- -- 68
2019-08-06 07:00:00 19 8 Sudoeste 14 Oeste 0 -- -- 63
2019-08-06 06:00:00 20.3 10 Sudoeste 14 Sudoeste 0 -- -- 58
2019-08-06 05:00:00 20.6 4 Oeste 9 Oeste 0 -- -- 57
2019-08-06 04:00:00 21.9 6 Sudoeste 9 Sudoeste 0 -- -- 53
2019-08-06 03:00:00 23.5 6 Sudoeste 17 Sudoeste 0 -- -- 45
2019-08-06 02:00:00 26 6 Sudoeste 19 Oeste 0 -- -- 39
2019-08-06 01:00:00 27.4 8 Oeste 24 Sudoeste 0 -- -- 35
2019-08-06 00:00:00 28 15 Sudoeste 22 Oeste 0 -- -- 32
2019-08-05 23:00:00 28.7 5 Oeste 10 Oeste 0 -- -- 22
2019-08-05 22:00:00 30 5 Oeste 12 Sudoeste 0 -- -- 19
2019-08-05 21:00:00 33.1 6 Sudoeste 17 Sudoeste 0 -- -- 17
2019-08-05 20:00:00 34 7 Sudoeste 20 Sudoeste 0 -- -- 14
2019-08-05 19:00:00 35 10 Sudoeste 24 Oeste 0 -- -- 15
2019-08-05 18:00:00 36.1 12 Sudoeste 26 Sur 0 -- -- 13
2019-08-05 17:00:00 35.4 10 Oeste 25 Sudoeste 0 -- -- 13
2019-08-05 16:00:00 34.7 11 Oeste 28 Sudoeste 0 -- -- 15
2019-08-05 15:00:00 33.6 13 Sur 27 Sudoeste 0 -- -- 18
2019-08-05 14:00:00 32.4 9 Sudoeste 23 Sudoeste 0 -- -- 19
2019-08-05 13:00:00 30.2 10 Sudoeste 19 Sudoeste 0 -- -- 29
2019-08-05 12:00:00 27.2 10 Sudoeste 17 Sudoeste 0 -- -- 39
2019-08-05 11:00:00 24.6 10 Sudoeste 16 Sur 0 -- -- 50
2019-08-05 10:00:00 21.2 5 Sudoeste 12 Oeste -- -- -- 62
2019-08-05 09:00:00 17.9 7 Sudoeste 11 Sudoeste 0 -- -- 74
2019-08-05 08:00:00 16.8 4 Oeste 10 Sudoeste 0 -- -- 77
2019-08-05 07:00:00 16.9 4 Sudoeste 7 Oeste 0 -- -- 76
2019-08-05 06:00:00 17.6 5 Oeste 9 Oeste 0 -- -- 74
2019-08-05 05:00:00 18.6 5 Oeste 11 Sudoeste 0 -- -- 69
2019-08-05 04:00:00 19.9 4 Oeste 7 Sudoeste 0 -- -- 62
2019-08-05 03:00:00 20.7 4 Oeste 13 Sudoeste 0 -- -- 57
2019-08-05 02:00:00 22.2 7 Sudoeste 15 Sudoeste 0 -- -- 50
2019-08-05 01:00:00 24.1 9 Sudoeste 20 Sudoeste 0 -- -- 44
2019-08-05 00:00:00 26 9 Sudoeste 19 Sudoeste 0 -- -- 38
2019-08-04 23:00:00 27.7 8 Oeste 20 Oeste 0 -- -- 35
2019-08-04 22:00:00 30 10 Oeste 25 Sudoeste 0 -- -- 31
2019-08-04 21:00:00 32.9 14 Oeste 26 Oeste 0 -- -- 24
2019-08-04 20:00:00 34.2 10 Oeste 23 Sudoeste 0 -- -- 22
2019-08-04 19:00:00 35.3 11 Oeste 24 Oeste 0 -- -- 21
2019-08-04 18:00:00 35.9 9 Sudoeste 30 Sudoeste 0 -- -- 23
2019-08-04 17:00:00 36.1 9 Oeste 24 Oeste 0 -- -- 23
2019-08-04 16:00:00 35 13 Sur 26 Sudoeste 0 -- -- 24
2019-08-04 15:00:00 34.3 9 Sudoeste 21 Sudoeste 0 -- -- 27
2019-08-04 14:00:00 32.3 10 Sudoeste 27 Sudoeste 0 -- -- 31
2019-08-04 13:00:00 31 7 Sudoeste 19 Sudoeste 0 -- -- 36
2019-08-04 12:00:00 28.9 6 Sur 14 Sudoeste 0 -- -- 40
2019-08-04 11:00:00 26.2 5 Sur 12 Sur 0 -- -- 49
2019-08-04 10:00:00 22.7 4 Sudoeste 11 Sudoeste 0 -- -- 58
2019-08-04 09:00:00 20.6 6 Sudoeste 12 Sudoeste 0 -- -- 64
2019-08-04 08:00:00 19.6 4 Oeste 14 Sudoeste 0 -- -- 62
2019-08-04 07:00:00 20 8 Sudoeste 10 Sudoeste 0 -- -- 62
2019-08-04 06:00:00 20.3 0 Calma 10 Sudoeste 0 -- -- 60
2019-08-04 05:00:00 21.7 6 Sudoeste 8 Sudoeste 0 -- -- 55
2019-08-04 04:00:00 23.1 3 Sudoeste 12 Sudoeste 0 -- -- 51
2019-08-04 03:00:00 24.5 6 Oeste 10 Oeste 0 -- -- 47
2019-08-04 02:00:00 25.3 8 Sudoeste 17 Sudoeste 0 -- -- 45
2019-08-04 01:00:00 25.9 12 Sudoeste 17 Sudoeste 0 -- -- 41
2019-08-04 00:00:00 27.3 8 Oeste 14 Sudoeste 0 -- -- 28
2019-08-03 23:00:00 29.4 7 Oeste 9 Oeste 0 -- -- 22
2019-08-03 22:00:00 30.4 5 Oeste 14 Sudoeste 0 -- -- 20
2019-08-03 21:00:00 33.5 6 Sudoeste 17 Sudoeste 0 -- -- 17
2019-08-03 20:00:00 34.2 9 Sudoeste 21 Sudoeste 0 -- -- 17
2019-08-03 19:00:00 35.9 8 Sudoeste 23 Sudoeste 0 -- -- 17
2019-08-03 18:00:00 36.1 8 Sur 26 Sudoeste 0 -- -- 15
2019-08-03 17:00:00 35.8 11 Sudoeste 27 Sudoeste 0 -- -- 16
2019-08-03 16:00:00 35.5 5 Sudeste 24 Sur 0 -- -- 19
2019-08-03 15:00:00 34.1 8 Sudoeste 25 Oeste 0 -- -- 23
2019-08-03 14:00:00 33.1 8 Sudoeste 23 Sudoeste 0 -- -- 27
2019-08-03 13:00:00 31.5 8 Sudoeste 18 Oeste 0 -- -- 33
2019-08-03 12:00:00 29.1 4 Sudeste 11 Sur 0 -- -- 40
2019-08-03 11:00:00 26.5 4 Este 12 Sudeste 0 -- -- 46
2019-08-03 10:00:00 23.3 6 Este 10 Nordeste 0 -- -- 49
2019-08-03 09:00:00 20.6 4 Este 8 Este 0 -- -- 53
2019-08-03 08:00:00 19.1 0 Calma 5 Sur 0 -- -- 57
2019-08-03 07:00:00 18.6 0 Calma 6 Nordeste 0 -- -- 50
2019-08-03 06:00:00 18.7 4 Nordeste 10 Este 0 -- -- 43
2019-08-03 05:00:00 19.3 5 Nordeste 7 Este 0 -- -- 40
2019-08-03 04:00:00 21.1 0 Calma 5 Este 0 -- -- 41
2019-08-03 03:00:00 22 0 Calma 10 Sudoeste 0 -- -- 45
2019-08-03 02:00:00 24.1 9 Sudoeste 13 Sudoeste 0 -- -- 34
2019-08-03 01:00:00 25.6 10 Sudoeste 23 Oeste 0 -- -- 22
2019-08-03 00:00:00 28.2 6 Oeste 9 Oeste 0 -- -- 18
2019-08-02 23:00:00 28.6 6 Oeste 8 Oeste 0 -- -- 17
2019-08-02 22:00:00 30.2 5 Oeste 13 Sudoeste 0 -- -- 16
2019-08-02 21:00:00 33.4 9 Sudoeste 16 Oeste 0 -- -- 13
2019-08-02 20:00:00 34.2 5 Noroeste 15 Sudoeste 0 -- -- 13
2019-08-02 19:00:00 35.6 9 Sur 22 Sur 0 -- -- 13
2019-08-02 18:00:00 36.1 9 Sudoeste 20 Sudoeste 0 -- -- 13
2019-08-02 17:00:00 35.9 7 Sur 17 Sudoeste 0 -- -- 13
2019-08-02 16:00:00 35.1 6 Sudoeste 20 Sudoeste 0 -- -- 15
2019-08-02 15:00:00 33.6 7 Oeste 18 Sur 0 -- -- 16
2019-08-02 14:00:00 32.3 5 Este 15 Sur 0 -- -- 21
2019-08-02 13:00:00 30 9 Sudoeste 18 Sudoeste 0 -- -- 25
2019-08-02 12:00:00 27.6 6 Sur 11 Sur 0 -- -- 36
2019-08-02 11:00:00 24.3 4 Sudoeste 8 Sudoeste 0 -- -- 43
2019-08-02 10:00:00 20.2 3 Sur 8 Sur 0 -- -- 56
2019-08-02 09:00:00 17.8 4 Sudoeste 7 Sudoeste 0 -- -- 64
2019-08-02 08:00:00 16.7 4 Oeste 7 Sudoeste 0 -- -- 66
2019-08-02 07:00:00 17.1 4 Sudoeste 10 Oeste 0 -- -- 64
2019-08-02 06:00:00 18.1 6 Sudoeste 9 Sudoeste 0 -- -- 61
2019-08-02 05:00:00 19 5 Sudoeste 8 Sudoeste 0 -- -- 59
2019-08-02 04:00:00 20.4 3 Oeste 17 Sudoeste 0 -- -- 47
2019-08-02 03:00:00 21.8 9 Sudoeste 14 Sudoeste 0 -- -- 41
2019-08-02 02:00:00 23.6 9 Sudoeste 17 Sudoeste 0 -- -- 33
2019-08-02 01:00:00 25.2 9 Sudoeste 29 Sudoeste 0 -- -- 30
2019-08-02 00:00:00 26.7 15 Sudoeste 30 Sudoeste 0 -- -- 27
2019-08-01 23:00:00 28.1 15 Sudoeste 23 Oeste 0 -- -- 25
2019-08-01 22:00:00 29.5 6 Oeste 19 Oeste 0 -- -- 25
2019-08-01 21:00:00 32.4 11 Sudoeste 25 Sudoeste 0 -- -- 19
2019-08-01 20:00:00 33.3 11 Oeste 24 Oeste 0 -- -- 18
2019-08-01 19:00:00 34.4 16 Sudoeste 27 Sudoeste 0 -- -- 19
2019-08-01 18:00:00 34.7 10 Oeste 29 Oeste 0 -- -- 18
2019-08-01 17:00:00 34.8 14 Sudoeste 35 Sur 0 -- -- 18
2019-08-01 16:00:00 34.1 19 Sudoeste 31 Oeste 0 -- -- 19
2019-08-01 15:00:00 33.5 18 Sudoeste 30 Sudoeste 0 -- -- 23
2019-08-01 14:00:00 32.6 9 Sudoeste 21 Sudoeste 0 -- -- 25
2019-08-01 13:00:00 30.7 7 Norte 16 Sudoeste 0 -- -- 29
2019-08-01 12:00:00 28.4 4 Norte 11 Este 0 -- -- 31
2019-08-01 11:00:00 26.4 4 Este 12 Sudeste 0 -- -- 37
2019-08-01 10:00:00 23.5 2 Sudeste 6 Sur 0 -- -- 41
2019-08-01 09:00:00 20.9 5 Este 7 Este 0 -- -- 46
2019-08-01 08:00:00 19.1 3 Este 8 Nordeste 0 -- -- 49
2019-08-01 07:00:00 19 7 Nordeste 9 Nordeste 0 -- -- 48
2019-08-01 06:00:00 19.8 5 Nordeste 10 Este 0 -- -- 45
2019-08-01 05:00:00 20.5 5 Nordeste 8 Nordeste 0 -- -- 43
2019-08-01 04:00:00 22.1 3 Nordeste 8 Sudoeste 0 -- -- 42
2019-08-01 03:00:00 24.4 5 Sudoeste 14 Noroeste 0 -- -- 37
2019-08-01 02:00:00 26.1 6 Oeste 22 Noroeste 0 -- -- 32
2019-08-01 01:00:00 27.3 13 Noroeste 30 Noroeste 0 -- -- 31
2019-08-01 00:00:00 28.2 16 Noroeste 28 Noroeste 0 -- -- 28
2019-07-31 23:00:00 29.4 12 Noroeste 20 Noroeste 0 -- -- 20
2019-07-31 22:00:00 29.9 11 Noroeste 17 Noroeste 0 -- -- 16
2019-07-31 21:00:00 31.9 5 Sudoeste 16 Sudoeste 0 -- -- 12
2019-07-31 20:00:00 33.3 11 Sudoeste 21 Sur 0 -- -- 12
2019-07-31 19:00:00 34.9 13 Sudoeste 28 Sur 0 -- -- 11
2019-07-31 18:00:00 35.2 16 Sur 32 Sur 0 -- -- 12
2019-07-31 17:00:00 35.2 12 Sudoeste 31 Sudoeste 0 -- -- 13
2019-07-31 16:00:00 35.4 12 Sudoeste 27 Sudoeste 0 -- -- 14
2019-07-31 15:00:00 33.4 9 Sudeste 32 Este 0 -- -- 22
2019-07-31 14:00:00 32.1 10 Sudeste 29 Este 0 -- -- 24
2019-07-31 13:00:00 30.1 14 Este 36 Este 0 -- -- 31
2019-07-31 12:00:00 28.3 22 Nordeste 48 Este 0 -- -- 42
2019-07-31 11:00:00 27 24 Nordeste 43 Este 0 -- -- 45
2019-07-31 10:00:00 24.5 27 Este 39 Este 0 -- -- 43
2019-07-31 09:00:00 22.2 21 Este 39 Este 0 -- -- 45
2019-07-31 08:00:00 20.7 22 Nordeste 39 Nordeste 0 -- -- 45
2019-07-31 07:00:00 19.8 15 Este 24 Este 0 -- -- 42
2019-07-31 06:00:00 21.3 14 Nordeste 22 Nordeste 0 -- -- 35
2019-07-31 05:00:00 20.8 9 Norte 14 Norte 0 -- -- 33
2019-07-31 04:00:00 21.5 0 Calma 13 Noroeste 0 -- -- 31
2019-07-31 03:00:00 21.7 6 Este 19 Noroeste 0 -- -- 31
2019-07-31 02:00:00 23.7 12 Noroeste 23 Noroeste 0 -- -- 27
2019-07-31 01:00:00 24 14 Noroeste 30 Noroeste 0 -- -- 26
2019-07-31 00:00:00 24.8 19 Noroeste 35 Norte 0 -- -- 25
2019-07-30 23:00:00 25.8 21 Norte 36 Norte 0 -- -- 23
2019-07-30 22:00:00 26.9 22 Noroeste 36 Noroeste 0 -- -- 22
2019-07-30 21:00:00 28.7 13 Norte 30 Noroeste 0 -- -- 21
2019-07-30 20:00:00 29.7 10 Noroeste 30 Noroeste 0 -- -- 20
2019-07-30 19:00:00 30.6 15 Noroeste 31 Noroeste 0 -- -- 19
2019-07-30 18:00:00 30.7 14 Noroeste 32 Oeste 0 -- -- 20
2019-07-30 17:00:00 30.8 12 Oeste 28 Noroeste 0 -- -- 20
2019-07-30 16:00:00 30.3 13 Norte 27 Noroeste 0 -- -- 21
2019-07-30 15:00:00 29.7 6 Norte 25 Nordeste 0 -- -- 22
2019-07-30 14:00:00 28.5 13 Noroeste 25 Noroeste 0 -- -- 26
2019-07-30 13:00:00 26.9 11 Nordeste 23 Este 0 -- -- 27
2019-07-30 12:00:00 25.4 14 Nordeste 29 Noroeste 0 -- -- 30
2019-07-30 11:00:00 22.3 19 Norte 35 Noroeste 0 -- -- 38
2019-07-30 10:00:00 19.8 19 Norte 39 Noroeste 0 -- -- 44
2019-07-30 09:00:00 17.8 21 Norte 49 Norte 0 -- -- 49
2019-07-30 08:00:00 16.3 30 Norte 59 Norte 0 -- -- 54
2019-07-30 07:00:00 16.4 39 Norte 64 Noroeste 0 -- -- 54
2019-07-30 06:00:00 17.1 37 Norte 64 Noroeste 0 -- -- 50
2019-07-30 05:00:00 17.9 38 Norte 64 Norte 0 -- -- 47
2019-07-30 04:00:00 18.6 36 Norte 61 Noroeste 0 -- -- 45
2019-07-30 03:00:00 18.8 32 Norte 54 Noroeste 0 -- -- 48
2019-07-30 02:00:00 19.8 30 Noroeste 51 Noroeste 0 -- -- 45
2019-07-30 01:00:00 20.7 24 Noroeste 43 Noroeste 0 -- -- 41
2019-07-30 00:00:00 21.7 25 Noroeste 40 Norte 0 -- -- 38
2019-07-29 23:00:00 23.1 25 Noroeste 43 Norte 0 -- -- 33
2019-07-29 22:00:00 24.8 22 Noroeste 40 Noroeste 0 -- -- 31
2019-07-29 21:00:00 27.2 20 Noroeste 32 Noroeste 0 -- -- 27
2019-07-29 20:00:00 28.6 17 Noroeste 30 Noroeste 0 -- -- 27
2019-07-29 19:00:00 29.7 16 Noroeste 31 Norte 0 -- -- 27
2019-07-29 18:00:00 30.6 15 Noroeste 33 Noroeste 0 -- -- 31
2019-07-29 17:00:00 30.8 9 Noroeste 30 Noroeste 0 -- -- 31
2019-07-29 16:00:00 31.2 13 Oeste 31 Sudoeste 0 -- -- 25
2019-07-29 15:00:00 29.7 16 Sudoeste 34 Sudoeste 0 -- -- 28
2019-07-29 14:00:00 29.2 12 Oeste 28 Sudoeste 0 -- -- 32
2019-07-29 13:00:00 27.7 10 Noroeste 23 Oeste 0 -- -- 38
2019-07-29 12:00:00 26.9 8 Oeste 19 Sudoeste 0 -- -- 32
2019-07-29 11:00:00 24.3 9 Sudoeste 17 Oeste 0 -- -- 37
2019-07-29 10:00:00 20.3 8 Sudoeste 13 Sudoeste 0 -- -- 50
2019-07-29 09:00:00 16.9 4 Sudoeste 10 Sudoeste 0 -- -- 66
2019-07-29 08:00:00 15.9 3 Oeste 6 Oeste 0 -- -- 70
2019-07-29 07:00:00 16.1 5 Oeste 13 Sudoeste 0 -- -- 69
2019-07-29 06:00:00 17.1 6 Oeste 12 Oeste 0 -- -- 66
2019-07-29 05:00:00 18.5 3 Oeste 15 Sudoeste -- -- -- 61
2019-07-29 04:00:00 20 10 Oeste 17 Sudoeste 0 -- -- 54
2019-07-29 03:00:00 21.5 10 Sudoeste 15 Sudoeste 0 -- -- 46
2019-07-29 02:00:00 22.7 11 Sudoeste 21 Oeste 0 -- -- 45
2019-07-29 01:00:00 24.6 15 Sudoeste 28 Sudoeste 0 -- -- 45
2019-07-29 00:00:00 26 16 Sudoeste 24 Oeste 0 -- -- 37
2019-07-28 23:00:00 27.1 4 Oeste 5 Oeste 0 -- -- 30
2019-07-28 22:00:00 27.9 3 Noroeste 11 Noroeste 0 -- -- 28
2019-07-28 21:00:00 30 6 Noroeste 18 Noroeste 0 -- -- 26
2019-07-28 20:00:00 30.4 8 Noroeste 24 Noroeste 0 -- -- 25
2019-07-28 19:00:00 31.5 9 Oeste 23 Oeste 0 -- -- 27
2019-07-28 18:00:00 31.5 9 Oeste 19 Noroeste 0 -- -- 29
2019-07-28 17:00:00 30.9 6 Oeste 23 Sudoeste 0 -- -- 30
2019-07-28 16:00:00 31 6 Noroeste 21 Oeste 0 -- -- 31
2019-07-28 15:00:00 29.2 9 Sudoeste 19 Sudoeste 0 -- -- 35
2019-07-28 14:00:00 28.3 4 Noroeste 18 Sudoeste 0 -- -- 36
2019-07-28 13:00:00 27.1 7 Nordeste 22 Nordeste 0 -- -- 40
2019-07-28 12:00:00 26.1 9 Nordeste 30 Nordeste 0 -- -- 43
2019-07-28 11:00:00 24.6 16 Este 29 Este 0 -- -- 47
2019-07-28 10:00:00 22.3 15 Nordeste 25 Nordeste 0 -- -- 55
2019-07-28 09:00:00 19.6 5 Este 13 Este 0 -- -- 65
2019-07-28 08:00:00 17.4 9 Este 15 Este 0 -- -- 73
2019-07-28 07:00:00 16.6 7 Este 15 Sudeste 0 -- -- 73
2019-07-28 06:00:00 19.7 7 Norte 17 Norte 0 -- -- 60
2019-07-28 05:00:00 19.9 5 Norte 32 Noroeste 0 -- -- 60
2019-07-28 04:00:00 21 16 Noroeste 33 Noroeste 0 -- -- 56
2019-07-28 03:00:00 21.9 20 Norte 34 Noroeste 0 -- -- 54
2019-07-28 02:00:00 22.2 15 Noroeste 28 Noroeste 0 -- -- 55
2019-07-28 01:00:00 20.8 12 Sudoeste 16 Oeste 0 -- -- 58
2019-07-28 00:00:00 21.8 9 Oeste 20 Sudoeste 0 -- -- 53
2019-07-27 23:00:00 23.1 13 Oeste 25 Oeste 0 -- -- 50
2019-07-26 12:00:00 25.2 12 Oeste 24 Oeste 0 -- -- 46
2019-07-26 11:00:00 23.5 16 Noroeste 26 Noroeste 0 -- -- 53
2019-07-26 10:00:00 21.7 9 Sudoeste 17 Oeste 0 -- -- 57
2019-07-26 09:00:00 19.1 8 Sudoeste 13 Sudoeste 0 -- -- 68
2019-07-26 08:00:00 17 8 Sudoeste 14 Sudoeste 0 -- -- 77
2019-07-26 07:00:00 17.3 12 Sudoeste 21 Oeste 0 -- -- 75
2019-07-26 06:00:00 18.8 14 Sudoeste 22 Sudoeste -- -- -- 73
2019-07-26 05:00:00 20.2 12 Sudoeste 19 Sudoeste 0 -- -- 71
2019-07-26 04:00:00 21.5 12 Sudoeste 21 Sudoeste 0 -- -- 69
2019-07-26 03:00:00 22.6 9 Oeste 25 Oeste 0 -- -- 66
2019-07-26 02:00:00 23.6 14 Oeste 24 Sudoeste 0 -- -- 61
2019-07-26 01:00:00 24.3 15 Sudoeste 32 Oeste 0 -- -- 59
2019-07-26 00:00:00 25.4 12 Oeste 30 Oeste 0 -- -- 54
2019-07-25 23:00:00 26.5 17 Oeste 32 Noroeste 0 -- -- 51
2019-07-25 22:00:00 29 14 Oeste 29 Noroeste 0 -- -- 36
2019-07-25 21:00:00 30.4 12 Oeste 25 Oeste 0 -- -- 32
2019-07-25 20:00:00 32.7 19 Sudoeste 31 Sudoeste 0 -- -- 25
2019-07-25 19:00:00 34.3 13 Sudoeste 34 Sudoeste 0 -- -- 25
2019-07-25 18:00:00 34.8 14 Sudoeste 36 Sudoeste 0 -- -- 22
2019-07-25 17:00:00 34.9 18 Sudoeste 38 Sur 0 -- -- 24
2019-07-25 16:00:00 34.9 16 Sudoeste 29 Sur 0 -- -- 25
2019-07-25 15:00:00 33.6 10 Oeste 34 Sudoeste 0 -- -- 27
2019-07-25 14:00:00 32.4 14 Sudoeste 28 Sudoeste 0 -- -- 30
2019-07-25 13:00:00 31.1 11 Sudoeste 23 Sudoeste 0 -- -- 33
2019-07-25 12:00:00 29.8 9 Sudoeste 23 Sur 0 -- -- 35
2019-07-25 11:00:00 26.9 10 Sudoeste 21 Sudoeste 0 -- -- 42
2019-07-25 10:00:00 25.6 9 Oeste 22 Sudoeste 0 -- -- 43
2019-07-25 09:00:00 23.6 9 Sudoeste 14 Sudoeste 0 -- -- 46
2019-07-25 08:00:00 21.9 7 Sudoeste 12 Sudoeste 0 -- -- 49
2019-07-25 07:00:00 22.5 9 Sudoeste 12 Sudoeste 0 -- -- 46
2019-07-25 06:00:00 22.8 4 Oeste 11 Oeste 0 -- -- 44
2019-07-25 05:00:00 23.9 8 Oeste 12 Oeste 0 -- -- 43
2019-07-25 04:00:00 24.9 6 Sudoeste 28 Sudoeste 0 -- -- 41
2019-07-25 03:00:00 27.8 12 Oeste 22 Sudoeste 0 -- -- 34
2019-07-25 02:00:00 27.4 13 Sudoeste 23 Sudoeste 0 -- -- 36
2019-07-25 01:00:00 28.9 12 Oeste 36 Oeste 0 -- -- 33
2019-07-25 00:00:00 29.9 18 Noroeste 33 Noroeste 0 -- -- 33
2019-07-24 23:00:00 31.4 11 Oeste 25 Oeste 0 -- -- 27
2019-07-24 22:00:00 33.4 7 Oeste 21 Sudoeste 0 -- -- 24
2019-07-24 21:00:00 35.3 14 Sudoeste 26 Sudoeste 0 -- -- 22
2019-07-24 20:00:00 36.3 16 Sudoeste 33 Sudoeste 0 -- -- 21
2019-07-24 19:00:00 37.7 17 Sudoeste 32 Sur 0 -- -- 20
2019-07-24 18:00:00 37.9 14 Sur 32 Sudoeste 0 -- -- 21
2019-07-24 17:00:00 38.3 14 Sur 32 Sur 0 -- -- 22
2019-07-24 16:00:00 37.7 14 Sur 32 Sur 0 -- -- 23
2019-07-24 15:00:00 36.9 20 Sur 32 Sur 0 -- -- 24
2019-07-24 14:00:00 35.7 8 Oeste 18 Sudoeste 0 -- -- 27
2019-07-24 13:00:00 33.9 9 Sudeste 19 Este 0 -- -- 31
2019-07-24 12:00:00 32.1 9 Nordeste 20 Este 0 -- -- 34
2019-07-24 11:00:00 29.9 10 Nordeste 20 Este 0 -- -- 39
2019-07-24 10:00:00 27.5 14 Este 21 Este 0 -- -- 45
2019-07-24 09:00:00 25.2 12 Este 17 Este 0 -- -- 51
2019-07-24 08:00:00 23.1 9 Nordeste 12 Nordeste 0 -- -- 58
2019-07-24 07:00:00 23 8 Nordeste 13 Nordeste 0 -- -- 58
2019-07-24 06:00:00 23.8 7 Nordeste 13 Nordeste 0 -- -- 54
2019-07-24 05:00:00 24.3 9 Nordeste 18 Nordeste 0 -- -- 52
2019-07-24 04:00:00 25.2 11 Este 27 Este 0 -- -- 49
2019-07-24 03:00:00 25.4 18 Este 34 Nordeste 0 -- -- 50
2019-07-24 02:00:00 27.1 21 Este 37 Este 0 -- -- 43
2019-07-24 01:00:00 27.4 9 Nordeste 20 Este 0 -- -- 40
2019-07-24 00:00:00 28.3 11 Este 29 Nordeste 0 -- -- 39
2019-07-23 23:00:00 29.8 19 Nordeste 29 Nordeste 0 -- -- 40
2019-07-23 22:00:00 32.8 5 Sudoeste 15 Sudoeste 0 -- -- 27
2019-07-23 21:00:00 34.7 13 Sudoeste 27 Sudoeste 0 -- -- 25
2019-07-23 20:00:00 35.4 16 Sudoeste 31 Sudoeste 0 -- -- 25
2019-07-23 19:00:00 36.6 20 Sudoeste 33 Oeste 0 -- -- 27
2019-07-23 18:00:00 37.2 19 Sudoeste 37 Sudoeste 0 -- -- 27
2019-07-23 17:00:00 36.3 7 Este 31 Sudeste 0 -- -- 27
2019-07-23 16:00:00 35.8 10 Este 25 Este 0 -- -- 27
2019-07-23 15:00:00 35.3 12 Este 22 Nordeste 0 -- -- 28
2019-07-23 14:00:00 33.8 12 Nordeste 24 Este 0 -- -- 30
2019-07-23 13:00:00 31.7 17 Este 35 Este 0 -- -- 32
2019-07-23 12:00:00 29 23 Nordeste 39 Este 0 -- -- 41
2019-07-23 11:00:00 25.6 16 Nordeste 35 Nordeste 0 -- -- 51
2019-07-23 10:00:00 25.7 22 Nordeste 33 Nordeste 0 -- -- 52
2019-07-23 09:00:00 24.1 18 Este 28 Nordeste 0 -- -- 57
2019-07-23 08:00:00 23.4 10 Nordeste 27 Este 0 -- -- 58
2019-07-23 07:00:00 23.8 19 Nordeste 28 Nordeste 0 -- -- 55
2019-07-23 06:00:00 23.2 19 Nordeste 39 Este 0 -- -- 60
2019-07-23 05:00:00 23.6 22 Este 38 Nordeste 0 -- -- 57
2019-07-23 04:00:00 24.9 19 Nordeste 29 Nordeste 0.2 -- -- 59
2019-07-23 03:00:00 27.5 12 Este 31 Nordeste 0 -- -- 44
2019-07-23 02:00:00 27.1 10 Norte 16 Norte 0 -- -- 44
2019-07-23 01:00:00 26.8 5 Oeste 14 Sudeste 0 -- -- 47
2019-07-23 00:00:00 28.1 7 Nordeste 26 Este 0 -- -- 42
2019-07-22 23:00:00 30.1 11 Este 54 Nordeste 0 -- -- 35
2019-07-22 22:00:00 35 3 Este 19 Este 0 -- -- 28
2019-07-22 21:00:00 37 5 Nordeste 16 Este 0 -- -- 25
2019-07-22 20:00:00 38 5 Este 20 Este 0 -- -- 23
2019-07-22 19:00:00 39.2 6 Este 28 Nordeste 0 -- -- 22
2019-07-22 18:00:00 39.4 13 Nordeste 31 Nordeste 0 -- -- 22
2019-07-22 17:00:00 39.2 14 Este 30 Este 0 -- -- 22
2019-07-22 16:00:00 38.1 18 Este 35 Este 0 -- -- 23
2019-07-22 15:00:00 37.1 22 Nordeste 44 Nordeste 0 -- -- 23
2019-07-22 14:00:00 35.9 24 Este 41 Este 0 -- -- 24
2019-07-22 13:00:00 34.3 26 Este 42 Nordeste 0 -- -- 25
2019-07-22 12:00:00 32.5 25 Nordeste 40 Este 0 -- -- 28
2019-07-22 11:00:00 30.5 27 Nordeste 41 Nordeste 0 -- -- 31
2019-07-22 10:00:00 28.5 25 Este 49 Nordeste 0 -- -- 35
2019-07-22 09:00:00 27.2 24 Nordeste 44 Este 0 -- -- 37
2019-07-22 08:00:00 26.8 27 Nordeste 41 Nordeste 0 -- -- 38
2019-07-22 07:00:00 26.4 19 Nordeste 29 Nordeste 0 -- -- 40
2019-07-22 06:00:00 26.8 19 Este 34 Este 0 -- -- 39
2019-07-22 05:00:00 25.2 6 Este 13 Este 0 -- -- 42
2019-07-22 04:00:00 25.3 4 Nordeste 10 Este 0 -- -- 46
2019-07-22 03:00:00 26.5 8 Este 18 Este 0 -- -- 47
2019-07-22 02:00:00 27.6 8 Oeste 15 Sudoeste 0 -- -- 40
2019-07-22 01:00:00 30.2 7 Sudoeste 19 Sudoeste 0 -- -- 32
2019-07-22 00:00:00 30.9 7 Sudoeste 17 Sudoeste 0 -- -- 22
2019-07-21 23:00:00 33 10 Noroeste 15 Noroeste 0 -- -- 17
2019-07-21 22:00:00 33.6 8 Noroeste 15 Noroeste 0 -- -- 18
2019-07-21 21:00:00 36 10 Noroeste 16 Oeste 0 -- -- 18
2019-07-21 20:00:00 37.7 3 Nordeste 21 Sur 0 -- -- 15
2019-07-21 19:00:00 39 6 Sudoeste 19 Sur 0 -- -- 15
2019-07-21 18:00:00 39.1 10 Sur 23 Sur 0 -- -- 17
2019-07-21 17:00:00 38.9 9 Oeste 24 Sudoeste 0 -- -- 17
2019-07-21 16:00:00 38.7 7 Sur 20 Sudoeste 0 -- -- 19
2019-07-21 15:00:00 37.4 8 Noroeste 21 Sudoeste 0 -- -- 20
2019-07-21 14:00:00 36.7 6 Sudoeste 20 Nordeste 0 -- -- 21
2019-07-21 13:00:00 35.2 6 Este 21 Este 0 -- -- 25
2019-07-21 12:00:00 32.9 13 Este 24 Nordeste 0 -- -- 28
2019-07-21 11:00:00 30.3 12 Este 23 Este 0 -- -- 34
2019-07-21 10:00:00 26.6 4 Nordeste 8 Norte 0 -- -- 46
2019-07-21 09:00:00 23.6 2 Este 12 Este 0 -- -- 55
2019-07-21 08:00:00 21.3 8 Nordeste 12 Nordeste 0 -- -- 59
2019-07-21 07:00:00 21.1 4 Nordeste 10 Nordeste 0 -- -- 58
2019-07-21 06:00:00 24.3 6 Sudeste 12 Este 0 -- -- 52
2019-07-21 05:00:00 25.6 5 Sudoeste 18 Noroeste 0 -- -- 46
2019-07-21 04:00:00 26.3 6 Sudoeste 39 Noroeste 0 -- -- 45
2019-07-21 03:00:00 27.2 20 Noroeste 35 Noroeste 0 -- -- 44
2019-07-21 02:00:00 28.4 19 Noroeste 36 Noroeste 0 -- -- 40
2019-07-21 01:00:00 29.7 24 Noroeste 38 Noroeste 0 -- -- 35
2019-07-21 00:00:00 31.1 20 Noroeste 30 Norte 0 -- -- 28